Time;durP1;ratioP1;P1;durP2;ratioP2;P2;SDS_P1;SDS_P2;PMS_P1;PMS_P2;Temp;Humidity;BMP_temperature;BMP_pressure;BME280_temperature;BME280_humidity;BME280_pressure;Samples;Min_cycle;Max_cycle;Signal;HPM_P1;HPM_P2
2023/04/28 00:00:07;;;;;;;8.67;4.80;;;;;;;;;;5073220;28;20222;-85
2023/04/28 00:02:36;;;;;;;6.07;3.73;;;;;;;;;;5072609;28;20359;-85
2023/04/28 00:05:06;;;;;;;8.70;5.13;;;;;;;;;;5073224;28;20205;-85
2023/04/28 00:07:36;;;;;;;8.83;6.57;;;;;;;;;;5073118;28;20210;-85
2023/04/28 00:10:04;;;;;;;6.97;5.40;;;;;;;;;;5072773;28;20272;-85
2023/04/28 00:12:33;;;;;;;9.30;6.00;;;;;;;;;;5073191;28;20210;-85
2023/04/28 00:15:02;;;;;;;6.83;4.93;;;;;;;;;;5073311;28;20203;-85
2023/04/28 00:17:30;;;;;;;8.83;6.37;;;;;;;;;;5072492;28;20203;-85
2023/04/28 00:19:59;;;;;;;9.57;5.73;;;;;;;;;;5072829;28;20236;-89
2023/04/28 00:22:30;;;;;;;6.17;5.40;;;;;;;;;;5073334;28;20232;-90
2023/04/28 00:24:58;;;;;;;7.43;6.63;;;;;;;;;;5072997;28;20264;-89
2023/04/28 00:27:26;;;;;;;5.93;4.97;;;;;;;;;;5073426;28;20244;-89
2023/04/28 00:29:55;;;;;;;6.97;6.27;;;;;;;;;;5073525;28;20201;-89
2023/04/28 00:32:23;;;;;;;6.40;5.07;;;;;;;;;;5073156;28;20257;-89
2023/04/28 00:34:52;;;;;;;8.20;6.03;;;;;;;;;;5073354;28;20290;-89
2023/04/28 00:37:21;;;;;;;5.40;4.70;;;;;;;;;;5073295;28;20292;-89
2023/04/28 00:39:55;;;;;;;8.20;6.27;;;;;;;;;;5072935;28;20290;-90
2023/04/28 00:42:23;;;;;;;6.10;5.10;;;;;;;;;;5072788;28;20265;-88
2023/04/28 00:44:51;;;;;;;7.70;6.20;;;;;;;;;;5072355;28;20290;-89
2023/04/28 00:47:20;;;;;;;5.10;3.47;;;;;;;;;;5072871;28;20214;-89
2023/04/28 00:49:49;;;;;;;6.80;4.97;;;;;;;;;;5071942;28;20235;-89
2023/04/28 00:52:17;;;;;;;6.80;4.60;;;;;;;;;;5072491;28;20233;-88
2023/04/28 00:54:47;;;;;;;8.20;6.93;;;;;;;;;;5072964;28;20199;-90
2023/04/28 00:57:17;;;;;;;8.50;6.17;;;;;;;;;;5072106;28;20226;-89
2023/04/28 00:59:45;;;;;;;7.23;4.93;;;;;;;;;;5072899;28;20208;-89
2023/04/28 01:02:16;;;;;;;5.57;5.00;;;;;;;;;;5072034;28;20235;-89
2023/04/28 01:04:45;;;;;;;8.90;6.17;;;;;;;;;;5072251;28;20224;-89
2023/04/28 01:07:14;;;;;;;7.67;5.40;;;;;;;;;;5073005;28;20203;-89
2023/04/28 01:09:42;;;;;;;7.20;5.90;;;;;;;;;;5072714;28;20195;-89
2023/04/28 01:12:11;;;;;;;8.03;5.97;;;;;;;;;;5072593;28;20203;-89
2023/04/28 01:14:41;;;;;;;5.70;4.73;;;;;;;;;;5072757;28;20196;-90
2023/04/28 01:17:09;;;;;;;6.43;5.70;;;;;;;;;;5072247;28;20233;-90
2023/04/28 01:19:38;;;;;;;7.47;5.93;;;;;;;;;;5071988;28;20227;-89
2023/04/28 01:22:06;;;;;;;5.83;4.57;;;;;;;;;;5072624;28;20231;-89
2023/04/28 01:24:36;;;;;;;6.83;5.00;;;;;;;;;;5072547;28;20255;-90
2023/04/28 01:27:04;;;;;;;4.00;3.47;;;;;;;;;;5072081;28;20222;-89
2023/04/28 01:29:33;;;;;;;4.87;4.27;;;;;;;;;;5072525;28;20208;-90
2023/04/28 01:32:01;;;;;;;8.67;6.23;;;;;;;;;;5072320;28;20230;-89
2023/04/28 01:34:30;;;;;;;7.40;6.43;;;;;;;;;;5072349;28;20325;-89
2023/04/28 01:36:58;;;;;;;7.37;5.90;;;;;;;;;;5071763;28;20329;-90
2023/04/28 01:39:27;;;;;;;6.60;4.70;;;;;;;;;;5072235;28;20199;-89
2023/04/28 01:41:56;;;;;;;4.27;3.57;;;;;;;;;;5071445;28;20249;-89
2023/04/28 01:44:25;;;;;;;4.47;4.00;;;;;;;;;;5071964;28;20227;-90
2023/04/28 01:46:53;;;;;;;18.00;5.70;;;;;;;;;;5071849;28;20230;-89
2023/04/28 01:49:22;;;;;;;3.20;2.63;;;;;;;;;;5071224;28;20205;-89
2023/04/28 01:51:51;;;;;;;7.13;5.07;;;;;;;;;;5071589;28;20199;-90
2023/04/28 01:54:19;;;;;;;6.93;4.30;;;;;;;;;;5071534;28;20195;-89
2023/04/28 01:56:48;;;;;;;7.30;4.97;;;;;;;;;;5071808;28;20215;-90
2023/04/28 01:59:18;;;;;;;20.23;6.10;;;;;;;;;;5071659;28;20216;-89
2023/04/28 02:01:47;;;;;;;5.07;4.67;;;;;;;;;;5076600;28;20235;-89
2023/04/28 02:04:16;;;;;;;4.87;3.90;;;;;;;;;;5078361;28;20242;-89
2023/04/28 02:06:45;;;;;;;3.50;3.07;;;;;;;;;;5078434;28;20205;-89
2023/04/28 02:09:13;;;;;;;7.23;6.17;;;;;;;;;;5078843;28;20200;-89
2023/04/28 02:11:41;;;;;;;5.90;5.07;;;;;;;;;;5078656;28;20252;-89
2023/04/28 02:14:10;;;;;;;6.07;4.07;;;;;;;;;;5077996;28;20195;-89
2023/04/28 02:16:40;;;;;;;6.40;4.27;;;;;;;;;;5078328;28;20228;-89
2023/04/28 02:19:08;;;;;;;16.07;6.77;;;;;;;;;;5078983;28;20252;-89
2023/04/28 02:21:37;;;;;;;7.97;5.50;;;;;;;;;;5078076;28;20206;-89
2023/04/28 02:24:06;;;;;;;7.37;3.90;;;;;;;;;;5078798;28;20283;-89
2023/04/28 02:26:35;;;;;;;4.13;3.73;;;;;;;;;;5078702;28;20208;-89
2023/04/28 02:29:04;;;;;;;6.53;5.53;;;;;;;;;;5078430;28;20196;-89
2023/04/28 02:31:32;;;;;;;8.43;7.00;;;;;;;;;;5078501;28;20258;-89
2023/04/28 02:34:02;;;;;;;5.77;4.90;;;;;;;;;;5078226;28;20274;-89
2023/04/28 02:36:31;;;;;;;3.53;3.20;;;;;;;;;;5077756;28;20202;-89
2023/04/28 02:39:00;;;;;;;7.53;5.33;;;;;;;;;;5077806;28;20219;-89
2023/04/28 02:41:29;;;;;;;6.53;5.33;;;;;;;;;;5078820;28;20238;-89
2023/04/28 02:43:58;;;;;;;6.67;5.47;;;;;;;;;;5078074;28;20200;-89
2023/04/28 02:46:26;;;;;;;7.37;5.73;;;;;;;;;;5078272;28;20294;-89
2023/04/28 02:48:55;;;;;;;6.43;5.13;;;;;;;;;;5077622;28;20190;-89
2023/04/28 02:51:25;;;;;;;7.37;5.00;;;;;;;;;;5078214;28;20191;-89
2023/04/28 02:53:54;;;;;;;7.80;5.63;;;;;;;;;;5077813;28;20200;-89
2023/04/28 02:56:22;;;;;;;10.00;7.20;;;;;;;;;;5078233;28;20247;-89
2023/04/28 02:58:50;;;;;;;10.80;8.23;;;;;;;;;;5077712;28;20192;-89
2023/04/28 03:01:19;;;;;;;6.07;4.03;;;;;;;;;;5077323;28;20227;-89
2023/04/28 03:03:47;;;;;;;5.10;4.13;;;;;;;;;;5077545;28;20208;-85
2023/04/28 03:06:16;;;;;;;5.90;4.10;;;;;;;;;;5077654;28;20222;-86
2023/04/28 03:08:46;;;;;;;7.60;5.77;;;;;;;;;;5077024;28;20235;-85
2023/04/28 03:11:14;;;;;;;11.73;7.40;;;;;;;;;;5077459;28;20208;-85
2023/04/28 03:13:43;;;;;;;8.17;6.67;;;;;;;;;;5073657;28;20204;-85
2023/04/28 03:16:12;;;;;;;11.17;5.93;;;;;;;;;;5073745;28;20188;-85
2023/04/28 03:18:40;;;;;;;10.60;6.93;;;;;;;;;;5074226;28;20196;-85
2023/04/28 03:21:08;;;;;;;5.23;4.53;;;;;;;;;;5074049;28;20199;-85
2023/04/28 03:23:37;;;;;;;6.63;5.97;;;;;;;;;;5074311;28;20238;-85
2023/04/28 03:26:07;;;;;;;6.77;6.07;;;;;;;;;;5073761;28;20309;-85
2023/04/28 03:28:35;;;;;;;3.30;2.60;;;;;;;;;;5073996;28;20223;-85
2023/04/28 03:31:03;;;;;;;7.13;4.77;;;;;;;;;;5073940;28;20204;-85
2023/04/28 03:33:32;;;;;;;8.43;6.40;;;;;;;;;;5073466;28;20271;-85
2023/04/28 03:36:00;;;;;;;6.07;5.40;;;;;;;;;;5073823;28;20290;-86
2023/04/28 03:38:29;;;;;;;8.63;5.70;;;;;;;;;;5073800;28;20230;-85
2023/04/28 03:40:57;;;;;;;8.87;7.00;;;;;;;;;;5073397;28;20226;-85
2023/04/28 03:43:27;;;;;;;7.33;4.83;;;;;;;;;;5073839;28;20248;-85
2023/04/28 03:45:55;;;;;;;1.97;1.87;;;;;;;;;;5073626;28;20239;-85
2023/04/28 03:48:23;;;;;;;4.00;3.43;;;;;;;;;;5074194;28;20208;-89
2023/04/28 03:50:52;;;;;;;4.90;3.20;;;;;;;;;;5074473;28;20245;-89
2023/04/28 03:53:20;;;;;;;4.07;3.60;;;;;;;;;;5074018;28;20250;-89
2023/04/28 03:55:49;;;;;;;4.63;4.20;;;;;;;;;;5073973;28;20226;-89
2023/04/28 03:58:18;;;;;;;2.83;2.63;;;;;;;;;;5073566;28;20216;-90
2023/04/28 04:00:49;;;;;;;4.93;3.93;;;;;;;;;;5073666;28;20207;-89
2023/04/28 04:03:20;;;;;;;1.20;1.13;;;;;;;;;;5072733;28;20242;-90
2023/04/28 04:05:49;;;;;;;11.70;5.70;;;;;;;;;;5073499;28;20219;-89
2023/04/28 04:08:17;;;;;;;6.90;4.77;;;;;;;;;;5073696;28;20198;-89
2023/04/28 04:10:46;;;;;;;7.10;6.40;;;;;;;;;;5073312;28;20237;-89
2023/04/28 04:13:14;;;;;;;5.93;4.70;;;;;;;;;;5073101;28;20260;-89
2023/04/28 04:15:42;;;;;;;9.50;7.80;;;;;;;;;;5073487;28;20245;-89
2023/04/28 04:18:13;;;;;;;6.60;5.70;;;;;;;;;;5073406;28;20199;-89
2023/04/28 04:20:42;;;;;;;8.33;6.20;;;;;;;;;;5072939;28;20214;-89
2023/04/28 04:23:10;;;;;;;12.23;7.03;;;;;;;;;;5073464;28;20209;-89
2023/04/28 04:25:38;;;;;;;3.03;2.77;;;;;;;;;;5072389;28;20222;-89
2023/04/28 04:28:07;;;;;;;4.23;3.47;;;;;;;;;;5072956;28;20316;-88
2023/04/28 04:30:35;;;;;;;4.13;3.27;;;;;;;;;;5073035;28;20305;-89
2023/04/28 04:33:04;;;;;;;5.40;4.87;;;;;;;;;;5073012;28;20204;-89
2023/04/28 04:35:34;;;;;;;10.73;5.37;;;;;;;;;;5072945;28;20223;-89
2023/04/28 04:38:03;;;;;;;4.77;4.07;;;;;;;;;;5073384;28;20201;-89
2023/04/28 04:40:32;;;;;;;3.70;3.33;;;;;;;;;;5073007;28;20195;-89
2023/04/28 04:43:00;;;;;;;6.93;4.73;;;;;;;;;;5073421;28;20217;-89
2023/04/28 04:45:29;;;;;;;9.67;7.07;;;;;;;;;;5072919;28;20224;-89
2023/04/28 04:47:59;;;;;;;12.97;6.77;;;;;;;;;;5073003;28;20241;-89
2023/04/28 04:50:28;;;;;;;6.13;4.63;;;;;;;;;;5072490;28;20295;-89
2023/04/28 04:52:58;;;;;;;5.37;3.80;;;;;;;;;;5072571;28;20192;-89
2023/04/28 04:55:26;;;;;;;6.23;4.57;;;;;;;;;;5073139;28;20196;-89
2023/04/28 04:57:54;;;;;;;9.67;5.73;;;;;;;;;;5072624;28;20234;-89
2023/04/28 05:00:23;;;;;;;6.27;5.67;;;;;;;;;;5072554;28;20206;-89
2023/04/28 05:02:51;;;;;;;8.43;5.80;;;;;;;;;;5072790;28;20265;-89
2023/04/28 05:05:20;;;;;;;8.50;6.13;;;;;;;;;;5072373;28;20206;-89
2023/04/28 05:07:50;;;;;;;5.67;4.30;;;;;;;;;;5072142;28;20200;-89
2023/04/28 05:10:20;;;;;;;3.40;2.97;;;;;;;;;;5072598;28;20207;-89
2023/04/28 05:12:48;;;;;;;5.63;4.27;;;;;;;;;;5072395;28;20200;-89
2023/04/28 05:15:17;;;;;;;7.40;4.57;;;;;;;;;;5072118;28;20300;-89
2023/04/28 05:17:45;;;;;;;13.43;7.67;;;;;;;;;;5072342;28;20291;-89
2023/04/28 05:20:14;;;;;;;7.17;4.40;;;;;;;;;;5072106;28;20207;-85
2023/04/28 05:22:43;;;;;;;6.90;4.07;;;;;;;;;;5071869;28;20253;-85
2023/04/28 05:25:11;;;;;;;1.93;1.83;;;;;;;;;;5072002;28;20242;-85
2023/04/28 05:27:41;;;;;;;2.47;2.20;;;;;;;;;;5071447;28;20227;-84
2023/04/28 05:30:10;;;;;;;1.53;1.47;;;;;;;;;;5071786;28;20227;-85
2023/04/28 05:32:38;;;;;;;2.83;2.63;;;;;;;;;;5071510;28;20303;-85
2023/04/28 05:35:07;;;;;;;2.83;2.00;;;;;;;;;;5071426;28;20207;-86
2023/04/28 05:37:37;;;;;;;3.80;3.20;;;;;;;;;;5071538;28;20222;-85
2023/04/28 05:40:06;;;;;;;1.40;1.40;;;;;;;;;;5071492;28;20227;-86
2023/04/28 05:42:35;;;;;;;1.23;1.23;;;;;;;;;;5071177;28;20194;-85
2023/04/28 05:45:05;;;;;;;1.07;1.07;;;;;;;;;;5071784;28;20231;-85
2023/04/28 05:47:34;;;;;;;2.13;2.00;;;;;;;;;;5071199;28;20218;-85
2023/04/28 05:50:02;;;;;;;5.73;4.80;;;;;;;;;;5071151;28;20195;-85
2023/04/28 05:52:31;;;;;;;2.20;2.10;;;;;;;;;;5071102;28;20204;-85
2023/04/28 05:54:59;;;;;;;2.77;2.50;;;;;;;;;;5071502;28;20235;-85
2023/04/28 05:57:27;;;;;;;4.23;3.83;;;;;;;;;;5071479;28;20199;-85
2023/04/28 06:00:01;;;;;;;1.90;1.80;;;;;;;;;;5071476;28;20216;-85
2023/04/28 06:02:30;;;;;;;3.70;3.23;;;;;;;;;;5070841;28;20272;-85
2023/04/28 06:04:59;;;;;;;5.77;3.40;;;;;;;;;;5071313;28;20201;-88
2023/04/28 06:07:28;;;;;;;7.63;4.23;;;;;;;;;;5071459;28;20232;-89
2023/04/28 06:09:59;;;;;;;7.33;4.90;;;;;;;;;;5071530;28;20233;-89
2023/04/28 06:12:28;;;;;;;5.27;3.67;;;;;;;;;;5071656;28;20210;-89
2023/04/28 06:14:56;;;;;;;2.27;2.07;;;;;;;;;;5071436;28;20205;-89
2023/04/28 06:17:25;;;;;;;3.17;2.40;;;;;;;;;;5071560;28;20212;-85
2023/04/28 06:19:55;;;;;;;6.03;2.47;;;;;;;;;;5071618;28;20202;-85
2023/04/28 06:22:24;;;;;;;5.70;4.77;;;;;;;;;;5071140;28;20233;-85
2023/04/28 06:24:52;;;;;;;4.93;3.13;;;;;;;;;;5071207;28;20303;-85
2023/04/28 06:27:21;;;;;;;4.57;3.63;;;;;;;;;;5070315;28;20319;-85
2023/04/28 06:29:50;;;;;;;6.90;4.80;;;;;;;;;;5071933;28;20208;-85
2023/04/28 06:32:18;;;;;;;7.33;5.80;;;;;;;;;;5070525;28;20201;-85
2023/04/28 06:34:47;;;;;;;4.20;3.30;;;;;;;;;;5071271;28;20228;-85
2023/04/28 06:37:17;;;;;;;4.97;3.73;;;;;;;;;;5071200;28;20197;-85
2023/04/28 06:39:46;;;;;;;3.90;3.03;;;;;;;;;;5070881;28;20288;-84
2023/04/28 06:42:17;;;;;;;12.67;6.00;;;;;;;;;;5071288;28;20235;-90
2023/04/28 06:44:45;;;;;;;9.67;7.33;;;;;;;;;;5071293;28;20219;-89
2023/04/28 06:47:14;;;;;;;8.87;6.10;;;;;;;;;;5071553;28;20220;-89
2023/04/28 06:49:44;;;;;;;8.73;6.10;;;;;;;;;;5074812;28;20211;-89
2023/04/28 06:52:13;;;;;;;7.57;5.67;;;;;;;;;;5075828;28;20203;-89
2023/04/28 06:54:43;;;;;;;6.87;6.00;;;;;;;;;;5074871;28;20281;-89
2023/04/28 06:57:12;;;;;;;8.00;7.10;;;;;;;;;;5075055;28;20193;-89
2023/04/28 06:59:42;;;;;;;6.40;5.73;;;;;;;;;;5075372;28;20250;-89
2023/04/28 07:02:11;;;;;;;2.30;2.10;;;;;;;;;;5075584;28;20259;-89
2023/04/28 07:04:39;;;;;;;7.63;4.33;;;;;;;;;;5075263;28;20246;-89
2023/04/28 07:07:08;;;;;;;5.20;4.00;;;;;;;;;;5075425;28;20251;-89
2023/04/28 07:09:37;;;;;;;7.83;5.83;;;;;;;;;;5075196;28;20227;-89
2023/04/28 07:12:07;;;;;;;7.07;4.97;;;;;;;;;;5075032;28;20271;-89
2023/04/28 07:14:36;;;;;;;7.83;5.60;;;;;;;;;;5075102;28;20205;-85
2023/04/28 07:17:04;;;;;;;8.67;5.03;;;;;;;;;;5074105;28;20229;-85
2023/04/28 07:19:33;;;;;;;7.30;5.67;;;;;;;;;;5074138;28;20206;-85
2023/04/28 07:22:01;;;;;;;7.07;5.67;;;;;;;;;;5074173;28;20196;-84
2023/04/28 07:24:30;;;;;;;8.17;5.70;;;;;;;;;;5073951;28;20185;-84
2023/04/28 07:26:58;;;;;;;7.83;7.03;;;;;;;;;;5073549;28;20250;-84
2023/04/28 07:29:33;;;;;;;9.97;6.27;;;;;;;;;;5074462;28;20249;-83
2023/04/28 07:32:03;;;;;;;7.93;6.70;;;;;;;;;;5073916;28;20243;-85
2023/04/28 07:34:35;;;;;;;6.23;5.10;;;;;;;;;;5073980;28;20305;-85
2023/04/28 07:37:04;;;;;;;8.97;5.67;;;;;;;;;;5073951;28;20204;-85
2023/04/28 07:39:33;;;;;;;5.43;4.90;;;;;;;;;;5073987;28;20292;-85
2023/04/28 07:42:02;;;;;;;4.30;3.40;;;;;;;;;;5074108;28;20295;-85
2023/04/28 07:44:32;;;;;;;7.70;5.30;;;;;;;;;;5073601;28;20208;-85
2023/04/28 07:47:01;;;;;;;7.27;6.00;;;;;;;;;;5073391;28;20217;-84
2023/04/28 07:49:30;;;;;;;4.40;4.00;;;;;;;;;;5073764;28;20248;-85
2023/04/28 07:52:01;;;;;;;6.63;4.43;;;;;;;;;;5073463;28;20198;-85
2023/04/28 07:54:29;;;;;;;11.50;6.30;;;;;;;;;;5073342;28;20203;-85
2023/04/28 07:56:58;;;;;;;8.67;6.97;;;;;;;;;;5073505;28;20259;-85
2023/04/28 07:59:26;;;;;;;5.00;4.50;;;;;;;;;;5073367;28;20225;-85
2023/04/28 08:01:57;;;;;;;6.60;5.53;;;;;;;;;;5072834;28;20241;-84
2023/04/28 08:04:25;;;;;;;7.37;6.57;;;;;;;;;;5073524;28;20198;-85
2023/04/28 08:06:55;;;;;;;7.70;5.40;;;;;;;;;;5072788;28;20228;-84
2023/04/28 08:09:23;;;;;;;10.57;7.23;;;;;;;;;;5072941;28;20205;-85
2023/04/28 08:11:52;;;;;;;5.90;5.17;;;;;;;;;;5073152;28;20205;-85
2023/04/28 08:14:21;;;;;;;12.37;7.10;;;;;;;;;;5072586;28;20201;-85
2023/04/28 08:16:49;;;;;;;8.87;7.97;;;;;;;;;;5072785;28;20261;-85
2023/04/28 08:19:20;;;;;;;12.13;8.73;;;;;;;;;;5073367;28;20209;-89
2023/04/28 08:21:48;;;;;;;11.43;7.00;;;;;;;;;;5073567;28;20202;-89
2023/04/28 08:24:17;;;;;;;11.40;8.10;;;;;;;;;;5072924;28;20290;-90
2023/04/28 08:26:46;;;;;;;8.70;6.97;;;;;;;;;;5072691;28;20209;-89
2023/04/28 08:29:14;;;;;;;18.47;9.37;;;;;;;;;;5072905;28;20263;-89
2023/04/28 08:31:42;;;;;;;14.33;9.23;;;;;;;;;;5072855;28;20331;-89
2023/04/28 08:34:11;;;;;;;12.70;5.47;;;;;;;;;;5072966;28;20205;-90
2023/04/28 08:36:44;;;;;;;10.27;8.07;;;;;;;;;;5072541;28;20207;-90
2023/04/28 08:39:12;;;;;;;14.93;9.87;;;;;;;;;;5072845;28;20212;-90
2023/04/28 08:41:41;;;;;;;10.27;6.63;;;;;;;;;;5072795;28;20235;-90
2023/04/28 08:44:10;;;;;;;12.13;9.17;;;;;;;;;;5072570;28;20255;-90
2023/04/28 08:46:40;;;;;;;13.93;10.83;;;;;;;;;;5072723;28;20205;-90
2023/04/28 08:49:13;;;;;;;10.37;8.37;;;;;;;;;;5072265;28;20225;-89
2023/04/28 08:51:46;;;;;;;12.57;9.53;;;;;;;;;;5072463;28;20300;-89
2023/04/28 08:54:16;;;;;;;14.23;9.80;;;;;;;;;;5072061;28;20220;-90
2023/04/28 08:56:54;;;;;;;8.43;7.57;;;;;;;;;;5072327;28;20192;-90
2023/04/28 08:59:22;;;;;;;11.33;8.73;;;;;;;;;;5072207;28;20255;-90
2023/04/28 09:01:51;;;;;;;14.57;9.87;;;;;;;;;;5071944;28;20324;-90
2023/04/28 09:04:21;;;;;;;17.47;10.87;;;;;;;;;;5072228;28;20280;-90
2023/04/28 09:06:51;;;;;;;6.07;5.07;;;;;;;;;;5072238;28;20209;-89
2023/04/28 09:09:23;;;;;;;7.10;4.43;;;;;;;;;;5072001;28;20248;-89
2023/04/28 09:11:54;;;;;;;11.00;8.73;;;;;;;;;;5071371;28;20224;-85
2023/04/28 09:14:23;;;;;;;11.43;10.27;;;;;;;;;;5071938;28;20225;-85
2023/04/28 09:16:52;;;;;;;13.67;10.27;;;;;;;;;;5071737;28;20190;-85
2023/04/28 09:19:21;;;;;;;10.13;9.07;;;;;;;;;;5072188;28;20202;-85
2023/04/28 09:21:52;;;;;;;13.10;6.43;;;;;;;;;;5072140;28;20209;-85
2023/04/28 09:24:27;;;;;;;3.53;2.47;;;;;;;;;;5071742;28;20202;-85
2023/04/28 09:26:56;;;;;;;7.47;5.53;;;;;;;;;;5071666;28;20316;-86
2023/04/28 09:29:25;;;;;;;12.03;10.73;;;;;;;;;;5071613;28;20225;-85
2023/04/28 09:31:53;;;;;;;10.97;8.83;;;;;;;;;;5071518;28;20194;-85
2023/04/28 09:34:22;;;;;;;8.07;5.67;;;;;;;;;;5071230;28;20228;-85
2023/04/28 09:36:52;;;;;;;18.57;10.53;;;;;;;;;;5071769;28;20209;-85
2023/04/28 09:39:29;;;;;;;3.17;2.90;;;;;;;;;;5071459;28;20213;-85
2023/04/28 09:42:02;;;;;;;5.60;4.80;;;;;;;;;;5071149;28;20211;-85
2023/04/28 09:44:30;;;;;;;3.90;3.43;;;;;;;;;;5071177;28;20209;-84
2023/04/28 09:47:00;;;;;;;21.33;18.10;;;;;;;;;;5071029;28;20208;-84
2023/04/28 09:49:28;;;;;;;20.33;15.70;;;;;;;;;;5070960;28;20313;-84
2023/04/28 09:52:12;;;;;;;25.50;20.87;;;;;;;;;;5071746;28;20205;-84
2023/04/28 09:54:40;;;;;;;26.00;18.63;;;;;;;;;;5071637;28;20197;-85
2023/04/28 09:57:09;;;;;;;26.27;19.83;;;;;;;;;;5071024;28;20221;-85
2023/04/28 09:59:38;;;;;;;12.00;9.70;;;;;;;;;;5071707;28;20229;-85
2023/04/28 10:02:07;;;;;;;7.87;5.90;;;;;;;;;;5071187;28;20268;-85
2023/04/28 10:04:55;;;;;;;5.30;2.47;;;;;;;;;;5070855;28;20208;-85
2023/04/28 10:07:27;;;;;;;3.03;2.93;;;;;;;;;;5071503;28;20258;-85
2023/04/28 10:09:56;;;;;;;6.53;5.90;;;;;;;;;;5071391;28;20214;-85
2023/04/28 10:12:25;;;;;;;20.37;16.17;;;;;;;;;;5070826;28;20241;-85
2023/04/28 10:14:54;;;;;;;6.27;4.87;;;;;;;;;;5071514;28;20198;-85
2023/04/28 10:17:24;;;;;;;3.93;3.57;;;;;;;;;;5070899;28;20203;-85
2023/04/28 10:19:54;;;;;;;26.80;23.17;;;;;;;;;;5071021;28;20205;-85
2023/04/28 10:22:35;;;;;;;27.50;24.27;;;;;;;;;;5073594;28;20208;-85
2023/04/28 10:25:13;;;;;;;16.43;13.73;;;;;;;;;;5075295;28;20202;-85
2023/04/28 10:27:43;;;;;;;28.17;25.20;;;;;;;;;;5074679;28;20323;-85
2023/04/28 10:30:12;;;;;;;20.53;17.07;;;;;;;;;;5075357;28;20320;-85
2023/04/28 10:33:13;;;;;;;12.03;10.77;;;;;;;;;;5075187;28;20197;-85
2023/04/28 10:35:43;;;;;;;26.27;23.47;;;;;;;;;;5074465;28;20198;-85
2023/04/28 10:38:13;;;;;;;30.13;22.40;;;;;;;;;;5075091;28;20206;-85
2023/04/28 10:40:43;;;;;;;24.03;20.03;;;;;;;;;;5074413;28;20193;-85
2023/04/28 10:43:12;;;;;;;16.80;14.40;;;;;;;;;;5074602;28;20213;-85
2023/04/28 10:46:02;;;;;;;31.43;26.43;;;;;;;;;;5074591;28;20202;-85
2023/04/28 10:48:49;;;;;;;32.20;26.60;;;;;;;;;;5070397;28;20201;-85
2023/04/28 10:51:33;;;;;;;33.43;26.20;;;;;;;;;;5074315;28;20201;-90
2023/04/28 10:54:21;;;;;;;35.03;31.33;;;;;;;;;;5072802;28;20259;-90
2023/04/28 10:57:10;;;;;;;33.50;29.97;;;;;;;;;;5074970;28;20241;-90
2023/04/28 10:59:38;;;;;;;32.10;25.73;;;;;;;;;;5074445;28;20411;-90
2023/04/28 11:02:31;;;;;;;31.70;26.57;;;;;;;;;;5074589;28;20233;-90
2023/04/28 11:05:12;;;;;;;30.87;24.93;;;;;;;;;;5059659;28;20201;-90
2023/04/28 11:07:41;;;;;;;21.97;17.40;;;;;;;;;;5074223;28;20197;-90
2023/04/28 11:10:11;;;;;;;12.70;10.13;;;;;;;;;;5074699;28;20243;-90
2023/04/28 11:13:06;;;;;;;28.93;22.97;;;;;;;;;;5074154;28;20241;-90
2023/04/28 11:15:36;;;;;;;34.67;28.53;;;;;;;;;;5074114;28;20201;-90
2023/04/28 11:18:04;;;;;;;30.27;26.27;;;;;;;;;;5074582;28;20255;-89
2023/04/28 11:20:34;;;;;;;36.70;30.27;;;;;;;;;;5074425;28;20270;-90
2023/04/28 11:23:05;;;;;;;38.00;27.87;;;;;;;;;;5073789;28;20190;-90
2023/04/28 11:25:48;;;;;;;32.27;25.67;;;;;;;;;;5074575;28;20297;-89
2023/04/28 11:28:18;;;;;;;17.33;13.43;;;;;;;;;;5073086;28;20286;-90
2023/04/28 11:30:47;;;;;;;17.83;13.67;;;;;;;;;;5073763;28;20318;-90
2023/04/28 11:33:16;;;;;;;23.90;16.90;;;;;;;;;;5073381;28;20292;-89
2023/04/28 11:35:46;;;;;;;8.30;6.40;;;;;;;;;;5073954;28;20202;-90
2023/04/28 11:38:15;;;;;;;14.97;9.93;;;;;;;;;;5073515;28;20206;-90
2023/04/28 11:40:56;;;;;;;2.67;2.47;;;;;;;;;;5074162;28;20225;-86
2023/04/28 11:43:31;;;;;;;12.00;6.17;;;;;;;;;;5073901;28;20249;-86
2023/04/28 11:46:17;;;;;;;14.50;7.40;;;;;;;;;;5073308;28;20197;-86
2023/04/28 11:48:46;;;;;;;9.43;5.43;;;;;;;;;;5073765;28;20263;-89
2023/04/28 11:51:34;;;;;;;3.13;2.67;;;;;;;;;;5073863;28;20243;-90
2023/04/28 11:54:03;;;;;;;6.33;4.47;;;;;;;;;;5073985;28;20308;-90
2023/04/28 11:56:33;;;;;;;4.57;2.80;;;;;;;;;;5073908;28;20279;-89
2023/04/28 11:59:07;;;;;;;3.57;2.23;;;;;;;;;;5073738;28;20214;-90
2023/04/28 12:01:37;;;;;;;6.53;3.17;;;;;;;;;;5073287;28;20229;-89
2023/04/28 12:04:05;;;;;;;4.90;2.47;;;;;;;;;;5073427;28;20322;-89
2023/04/28 12:06:34;;;;;;;4.93;2.33;;;;;;;;;;5073429;28;20226;-89
2023/04/28 12:09:15;;;;;;;7.00;4.10;;;;;;;;;;5073702;28;20272;-89
2023/04/28 12:11:53;;;;;;;8.43;3.03;;;;;;;;;;5073411;28;20198;-89
2023/04/28 12:14:23;;;;;;;7.10;2.97;;;;;;;;;;5073748;28;20305;-89
2023/04/28 12:16:52;;;;;;;2.63;1.30;;;;;;;;;;5072884;28;20252;-89
2023/04/28 12:19:21;;;;;;;18.53;6.70;;;;;;;;;;5073151;28;20202;-89
2023/04/28 12:22:10;;;;;;;8.83;4.27;;;;;;;;;;5072994;28;20206;-89
2023/04/28 12:24:39;;;;;;;8.90;3.07;;;;;;;;;;5066917;28;20298;-89
2023/04/28 12:27:14;;;;;;;10.93;4.53;;;;;;;;;;5072286;28;20223;-86
2023/04/28 12:29:45;;;;;;;2.33;1.83;;;;;;;;;;5072750;28;20266;-85
2023/04/28 12:32:14;;;;;;;3.40;2.83;;;;;;;;;;5072664;28;20248;-85
2023/04/28 12:34:44;;;;;;;4.83;3.13;;;;;;;;;;5072322;28;20204;-86
2023/04/28 12:37:14;;;;;;;7.83;4.77;;;;;;;;;;5072253;28;20195;-86
2023/04/28 12:39:42;;;;;;;8.67;4.40;;;;;;;;;;5072341;28;20199;-85
2023/04/28 12:42:11;;;;;;;17.73;7.17;;;;;;;;;;5054325;28;20204;-86
2023/04/28 12:44:40;;;;;;;9.57;4.47;;;;;;;;;;5071501;28;20196;-85
2023/04/28 12:47:10;;;;;;;12.83;8.83;;;;;;;;;;5071705;28;20200;-85
2023/04/28 12:49:40;;;;;;;10.33;4.53;;;;;;;;;;5071916;28;20219;-86
2023/04/28 12:52:08;;;;;;;13.07;6.63;;;;;;;;;;5072347;28;20202;-85
2023/04/28 12:54:37;;;;;;;13.70;4.97;;;;;;;;;;5072596;28;20214;-86
2023/04/28 12:57:06;;;;;;;9.07;6.43;;;;;;;;;;5072185;28;20253;-85
2023/04/28 12:59:34;;;;;;;25.27;8.80;;;;;;;;;;5071921;28;20268;-85
2023/04/28 13:02:03;;;;;;;36.70;7.37;;;;;;;;;;5072066;28;20402;-85
2023/04/28 13:04:32;;;;;;;16.63;6.20;;;;;;;;;;5071752;28;20199;-85
2023/04/28 13:07:01;;;;;;;7.50;4.43;;;;;;;;;;5071931;28;20195;-85
2023/04/28 13:09:30;;;;;;;11.90;6.00;;;;;;;;;;5071968;28;20209;-86
2023/04/28 13:11:58;;;;;;;16.33;7.23;;;;;;;;;;5071616;28;20204;-85
2023/04/28 13:14:27;;;;;;;12.00;6.63;;;;;;;;;;5071961;28;20257;-85
2023/04/28 13:16:56;;;;;;;14.57;6.60;;;;;;;;;;5071947;28;20202;-86
2023/04/28 13:19:26;;;;;;;15.70;8.03;;;;;;;;;;5072158;28;20201;-86
2023/04/28 13:21:56;;;;;;;10.03;5.60;;;;;;;;;;5071682;28;20245;-85
2023/04/28 13:24:25;;;;;;;25.70;8.80;;;;;;;;;;5071795;28;20199;-85
2023/04/28 13:26:53;;;;;;;22.93;11.33;;;;;;;;;;5071503;28;20224;-85
2023/04/28 13:29:22;;;;;;;10.33;6.97;;;;;;;;;;5071487;28;20220;-85
2023/04/28 13:31:50;;;;;;;26.10;11.90;;;;;;;;;;5071708;28;20318;-86
2023/04/28 13:34:18;;;;;;;13.10;10.20;;;;;;;;;;5071709;28;20203;-86
2023/04/28 13:36:49;;;;;;;7.60;5.90;;;;;;;;;;5071730;28;20273;-85
2023/04/28 13:39:20;;;;;;;17.40;9.17;;;;;;;;;;5071396;28;20215;-85
2023/04/28 13:41:49;;;;;;;20.20;16.00;;;;;;;;;;5071520;28;20195;-85
2023/04/28 13:44:18;;;;;;;20.43;14.20;;;;;;;;;;5071500;28;20299;-85
2023/04/28 13:46:47;;;;;;;11.13;7.53;;;;;;;;;;5071286;28;20208;-85
2023/04/28 13:49:15;;;;;;;7.40;4.87;;;;;;;;;;5071292;28;20206;-85
2023/04/28 13:51:45;;;;;;;14.83;9.57;;;;;;;;;;5071010;28;20251;-86
2023/04/28 13:54:13;;;;;;;12.00;8.47;;;;;;;;;;5071479;28;20204;-85
2023/04/28 13:56:43;;;;;;;17.10;12.63;;;;;;;;;;5070906;28;20294;-86
2023/04/28 13:59:12;;;;;;;12.30;9.63;;;;;;;;;;5071252;28;20200;-85
2023/04/28 14:01:40;;;;;;;15.80;11.67;;;;;;;;;;5071796;28;20221;-85
2023/04/28 14:04:09;;;;;;;10.47;7.00;;;;;;;;;;5071117;28;20236;-85
2023/04/28 14:06:38;;;;;;;6.90;4.50;;;;;;;;;;5071239;28;20245;-85
2023/04/28 14:09:08;;;;;;;10.43;7.80;;;;;;;;;;5071075;28;20228;-85
2023/04/28 14:11:36;;;;;;;11.10;8.60;;;;;;;;;;5070952;28;20218;-85
2023/04/28 14:14:06;;;;;;;13.87;10.30;;;;;;;;;;5071077;28;20293;-86
2023/04/28 14:16:35;;;;;;;10.87;5.53;;;;;;;;;;5071412;28;20209;-85
2023/04/28 14:19:03;;;;;;;14.60;6.53;;;;;;;;;;5071172;28;20202;-85
2023/04/28 14:21:32;;;;;;;10.10;8.70;;;;;;;;;;5070913;28;20233;-85
2023/04/28 14:24:00;;;;;;;12.87;8.93;;;;;;;;;;5070950;28;20258;-85
2023/04/28 14:26:28;;;;;;;17.20;12.83;;;;;;;;;;5071272;28;20194;-85
2023/04/28 14:28:58;;;;;;;12.33;8.90;;;;;;;;;;5071164;28;20289;-86
2023/04/28 14:31:28;;;;;;;8.70;6.17;;;;;;;;;;5070606;28;20272;-85
2023/04/28 14:33:57;;;;;;;15.40;12.50;;;;;;;;;;5071183;28;20235;-85
2023/04/28 14:36:26;;;;;;;14.07;10.37;;;;;;;;;;5071208;28;20204;-85
2023/04/28 14:38:54;;;;;;;13.40;6.93;;;;;;;;;;5070932;28;20203;-85
2023/04/28 14:41:23;;;;;;;7.43;5.80;;;;;;;;;;5070666;28;20217;-85
2023/04/28 14:43:51;;;;;;;14.40;10.80;;;;;;;;;;5070725;28;20211;-85
2023/04/28 14:46:21;;;;;;;15.03;9.80;;;;;;;;;;5070679;28;20210;-85
2023/04/28 14:48:52;;;;;;;5.63;3.63;;;;;;;;;;5070736;28;20195;-85
2023/04/28 14:51:21;;;;;;;11.73;8.17;;;;;;;;;;5070917;28;20323;-90